Time;durP1;ratioP1;P1;durP2;ratioP2;P2;SDS_P1;SDS_P2;PMS_P1;PMS_P2;Temp;Humidity;BMP_temperature;BMP_pressure;BME280_temperature;BME280_humidity;BME280_pressure;Samples;Min_cycle;Max_cycle;Signal;HPM_P1;HPM_P2
2021/09/16 00:00:02;;;;;;;19.90;18.20;;;21.50;99.90;;;;;;6199285;28;20241;-63
2021/09/16 00:03:05;;;;;;;20.27;18.57;;;21.50;99.90;;;;;;6198280;28;20716;-63
2021/09/16 00:06:09;;;;;;;19.40;17.87;;;21.50;99.90;;;;;;6202706;28;20696;-63
2021/09/16 00:09:12;;;;;;;18.50;17.10;;;21.50;99.90;;;;;;6190173;28;20575;-63
2021/09/16 00:12:16;;;;;;;19.50;17.80;;;21.40;99.90;;;;;;6191498;28;20574;-63
2021/09/16 00:15:20;;;;;;;19.57;18.00;;;21.40;99.90;;;;;;6182353;28;20222;-63
2021/09/16 00:18:23;;;;;;;19.77;17.80;;;21.40;99.90;;;;;;6190297;28;20210;-62
2021/09/16 00:21:27;;;;;;;19.50;17.47;;;21.40;99.90;;;;;;6195660;28;20261;-62
2021/09/16 00:24:30;;;;;;;17.10;15.80;;;21.40;99.90;;;;;;6200266;28;20220;-63
2021/09/16 00:27:34;;;;;;;20.70;19.00;;;21.30;99.90;;;;;;6190068;28;20228;-63
2021/09/16 00:30:38;;;;;;;20.30;18.60;;;21.30;99.90;;;;;;6192409;28;20229;-62
2021/09/16 00:33:41;;;;;;;19.43;17.90;;;21.20;99.90;;;;;;6198185;28;20226;-62
2021/09/16 00:36:45;;;;;;;19.77;18.17;;;21.20;99.90;;;;;;6182215;28;20236;-63
2021/09/16 00:39:48;;;;;;;20.50;18.50;;;21.20;99.90;;;;;;6202215;28;20229;-63
2021/09/16 00:42:52;;;;;;;18.73;17.33;;;21.20;99.90;;;;;;6201928;28;20577;-63
2021/09/16 00:46:03;;;;;;;21.37;19.40;;;21.20;99.90;;;;;;6202133;28;20232;-63
2021/09/16 00:49:06;;;;;;;21.20;19.07;;;21.20;99.90;;;;;;6202471;28;20240;-63
2021/09/16 00:52:10;;;;;;;20.57;18.50;;;21.10;99.90;;;;;;6202399;28;20232;-63
2021/09/16 00:55:14;;;;;;;19.77;18.17;;;21.10;99.90;;;;;;6202213;28;20240;-63
2021/09/16 00:58:21;;;;;;;19.33;17.77;;;21.10;99.90;;;;;;6202081;28;20245;-63
2021/09/16 01:01:24;;;;;;;20.13;18.40;;;21.20;99.90;;;;;;6201588;28;20238;-63
2021/09/16 01:04:29;;;;;;;19.63;17.63;;;21.20;99.90;;;;;;6201602;28;20569;-63
2021/09/16 01:07:32;;;;;;;19.20;17.30;;;21.20;99.90;;;;;;6202367;28;20240;-63
2021/09/16 01:10:36;;;;;;;19.97;18.30;;;21.20;99.90;;;;;;6201480;28;20693;-63
2021/09/16 01:13:43;;;;;;;19.93;18.27;;;21.10;99.90;;;;;;6201476;28;20666;-63
2021/09/16 01:16:46;;;;;;;18.67;17.07;;;21.10;99.90;;;;;;6197227;28;20669;-63
2021/09/16 01:19:49;;;;;;;18.93;17.33;;;21.10;99.90;;;;;;6201472;28;20308;-63
2021/09/16 01:22:55;;;;;;;19.00;17.10;;;21.20;99.90;;;;;;6201480;28;20252;-63
2021/09/16 01:25:58;;;;;;;20.13;18.13;;;21.20;99.90;;;;;;6201907;28;20233;-63
2021/09/16 01:29:01;;;;;;;18.23;16.83;;;21.10;99.90;;;;;;6201538;28;20259;-63
2021/09/16 01:32:07;;;;;;;18.40;17.00;;;21.10;99.90;;;;;;6201174;28;20588;-63
2021/09/16 01:35:10;;;;;;;19.27;17.67;;;21.20;99.90;;;;;;6201325;28;20295;-63
2021/09/16 01:38:14;;;;;;;18.77;17.30;;;21.20;99.90;;;;;;6201310;28;20237;-63
2021/09/16 01:41:18;;;;;;;19.87;18.17;;;21.20;99.90;;;;;;6201200;28;20237;-63
2021/09/16 01:44:21;;;;;;;19.93;18.13;;;21.20;99.90;;;;;;6200885;28;20247;-63
2021/09/16 01:47:24;;;;;;;20.40;18.70;;;21.30;99.90;;;;;;6200734;28;20221;-63
2021/09/16 01:50:27;;;;;;;19.60;17.90;;;21.20;99.90;;;;;;6203714;28;20244;-62
2021/09/16 01:53:32;;;;;;;21.10;19.33;;;21.20;99.90;;;;;;6206107;28;20236;-63
2021/09/16 01:56:35;;;;;;;20.50;18.40;;;21.20;99.90;;;;;;6205741;28;20232;-62
2021/09/16 01:59:38;;;;;;;21.73;19.63;;;21.20;99.90;;;;;;6206166;28;20229;-62
2021/09/16 02:02:41;;;;;;;20.13;18.20;;;21.20;99.90;;;;;;6206089;28;20237;-62
2021/09/16 02:05:45;;;;;;;19.93;17.97;;;21.20;99.90;;;;;;6206256;28;20233;-62
2021/09/16 02:08:49;;;;;;;20.20;18.23;;;21.30;99.90;;;;;;6205779;28;20234;-62
2021/09/16 02:11:52;;;;;;;22.73;20.50;;;21.20;99.90;;;;;;6205722;28;20238;-62
2021/09/16 02:14:55;;;;;;;22.30;20.07;;;21.30;99.90;;;;;;6206208;28;20230;-62
2021/09/16 02:17:59;;;;;;;20.70;18.93;;;21.30;99.90;;;;;;6205526;28;20235;-61
2021/09/16 02:21:02;;;;;;;20.20;18.30;;;21.30;99.90;;;;;;6206045;28;20303;-61
2021/09/16 02:24:07;;;;;;;21.23;19.30;;;21.30;99.90;;;;;;6205332;28;20716;-62
2021/09/16 02:27:10;;;;;;;20.50;18.43;;;21.40;99.90;;;;;;6205701;28;20226;-62
2021/09/16 02:30:14;;;;;;;20.67;18.77;;;21.40;99.90;;;;;;6205506;28;20244;-62
2021/09/16 02:33:17;;;;;;;21.00;19.10;;;21.40;99.90;;;;;;6206004;28;20242;-62
2021/09/16 02:36:21;;;;;;;19.30;17.67;;;21.50;99.90;;;;;;6205065;28;20293;-62
2021/09/16 02:39:25;;;;;;;18.73;16.17;;;21.50;99.90;;;;;;6205156;28;20221;-62
2021/09/16 02:42:28;;;;;;;15.47;14.17;;;21.50;99.90;;;;;;6204399;28;20253;-62
2021/09/16 02:45:31;;;;;;;15.97;14.57;;;21.40;99.90;;;;;;6205019;28;20210;-62
2021/09/16 02:48:34;;;;;;;15.27;13.60;;;21.40;99.90;;;;;;6205491;28;20220;-62
2021/09/16 02:51:38;;;;;;;14.50;13.00;;;21.30;99.90;;;;;;6197083;28;20620;-62
2021/09/16 02:54:42;;;;;;;16.60;14.00;;;21.30;99.90;;;;;;6204943;28;20284;-62
2021/09/16 02:57:45;;;;;;;16.20;14.60;;;21.00;99.90;;;;;;6204529;28;20558;-62
2021/09/16 03:00:48;;;;;;;16.03;14.53;;;20.60;99.90;;;;;;6204678;28;20233;-63
2021/09/16 03:03:52;;;;;;;13.30;12.20;;;20.40;99.90;;;;;;6204955;28;20689;-62
2021/09/16 03:06:55;;;;;;;13.40;12.00;;;20.40;99.90;;;;;;6204739;28;20225;-62
2021/09/16 03:09:59;;;;;;;14.77;13.27;;;20.50;99.90;;;;;;6204502;28;20241;-62
2021/09/16 03:13:02;;;;;;;15.27;13.80;;;20.50;99.90;;;;;;6204493;28;20230;-62
2021/09/16 03:16:06;;;;;;;12.20;10.97;;;20.40;99.90;;;;;;6204797;28;20230;-62
2021/09/16 03:19:09;;;;;;;13.47;12.17;;;20.40;99.90;;;;;;6204295;28;20229;-62
2021/09/16 03:22:13;;;;;;;13.37;11.97;;;20.40;99.90;;;;;;6204052;28;20234;-62
2021/09/16 03:25:17;;;;;;;12.07;10.70;;;20.50;99.90;;;;;;6194967;28;20237;-62
2021/09/16 03:28:20;;;;;;;11.13;10.13;;;20.50;99.90;;;;;;6203657;28;20229;-62
2021/09/16 03:31:24;;;;;;;12.23;11.03;;;20.40;99.90;;;;;;6204235;28;20248;-62
2021/09/16 03:34:27;;;;;;;11.20;10.10;;;20.50;99.90;;;;;;6203853;28;20240;-64
2021/09/16 03:37:30;;;;;;;11.30;9.50;;;20.40;99.90;;;;;;6204352;28;20229;-63
2021/09/16 03:40:35;;;;;;;11.00;10.00;;;20.40;99.90;;;;;;6203239;28;20237;-62
2021/09/16 03:43:38;;;;;;;11.30;10.20;;;20.50;99.90;;;;;;6203720;28;20233;-62
2021/09/16 03:46:41;;;;;;;11.50;10.40;;;20.50;99.90;;;;;;6203563;28;20298;-62
2021/09/16 03:49:44;;;;;;;10.73;9.83;;;20.50;99.90;;;;;;6203952;28;20562;-62
2021/09/16 03:52:48;;;;;;;11.83;10.73;;;20.60;99.90;;;;;;6203426;28;20245;-63
2021/09/16 03:55:52;;;;;;;12.43;11.43;;;20.60;99.90;;;;;;6203321;28;20701;-63
2021/09/16 03:58:56;;;;;;;9.77;8.87;;;20.60;99.90;;;;;;6203612;28;20248;-62
2021/09/16 04:01:59;;;;;;;10.77;9.87;;;20.70;99.90;;;;;;6203333;28;20249;-62
2021/09/16 04:05:02;;;;;;;11.30;10.20;;;20.70;99.90;;;;;;6203693;28;20237;-63
2021/09/16 04:08:06;;;;;;;10.37;9.47;;;20.70;99.90;;;;;;6203110;28;20671;-62
2021/09/16 04:11:10;;;;;;;10.93;9.87;;;20.60;99.90;;;;;;6203367;28;20241;-62
2021/09/16 04:14:13;;;;;;;11.27;9.40;;;20.50;99.90;;;;;;6202232;28;20230;-63
2021/09/16 04:17:16;;;;;;;9.87;8.97;;;20.50;99.90;;;;;;6202944;28;20260;-63
2021/09/16 04:20:20;;;;;;;11.20;10.03;;;20.40;99.90;;;;;;6202634;28;20701;-63
2021/09/16 04:23:23;;;;;;;9.90;9.10;;;20.40;99.90;;;;;;6202810;28;20229;-63
2021/09/16 04:26:27;;;;;;;10.60;9.70;;;20.40;99.90;;;;;;6202777;28;20237;-63
2021/09/16 04:29:30;;;;;;;11.00;10.00;;;20.30;99.90;;;;;;6198297;28;20244;-63
2021/09/16 04:32:34;;;;;;;10.63;9.67;;;20.20;99.90;;;;;;6202176;28;20307;-63
2021/09/16 04:35:37;;;;;;;12.23;10.77;;;20.10;99.90;;;;;;6202588;28;20266;-63
2021/09/16 04:38:40;;;;;;;11.93;10.83;;;20.10;99.90;;;;;;6201966;28;20249;-63
2021/09/16 04:41:44;;;;;;;10.50;9.50;;;20.10;99.90;;;;;;6202306;28;20249;-63
2021/09/16 04:44:47;;;;;;;11.63;10.37;;;20.20;99.90;;;;;;6202293;28;20279;-63
2021/09/16 04:47:51;;;;;;;10.03;9.20;;;20.20;99.90;;;;;;6202536;28;20221;-63
2021/09/16 04:50:54;;;;;;;10.40;9.50;;;20.40;99.90;;;;;;6201894;28;20253;-63
2021/09/16 04:53:57;;;;;;;9.30;8.50;;;20.50;99.90;;;;;;6202403;28;20233;-64
2021/09/16 04:57:02;;;;;;;11.63;10.40;;;20.50;99.90;;;;;;6203757;28;20238;-64
2021/09/16 05:00:06;;;;;;;10.67;9.30;;;20.50;99.90;;;;;;6202071;28;20559;-64
2021/09/16 05:03:09;;;;;;;10.27;9.17;;;20.50;99.90;;;;;;6203657;28;20340;-64
2021/09/16 05:06:13;;;;;;;9.60;8.70;;;20.60;99.90;;;;;;6202697;28;20229;-64
2021/09/16 05:09:16;;;;;;;9.60;8.70;;;20.60;99.90;;;;;;6201582;28;20225;-63
2021/09/16 05:12:20;;;;;;;8.57;7.87;;;20.70;99.90;;;;;;6201311;28;20577;-62
2021/09/16 05:15:23;;;;;;;9.20;8.40;;;20.70;99.90;;;;;;6202029;28;20205;-62
2021/09/16 05:18:26;;;;;;;9.43;8.43;;;20.80;99.90;;;;;;6201822;28;20244;-64
2021/09/16 05:21:30;;;;;;;10.33;8.47;;;20.70;99.90;;;;;;6201059;28;20233;-64
2021/09/16 05:24:33;;;;;;;9.90;9.00;;;20.80;99.90;;;;;;6201880;28;20217;-64
2021/09/16 05:27:37;;;;;;;9.80;8.90;;;20.80;99.90;;;;;;6201563;28;20209;-64
2021/09/16 05:30:40;;;;;;;10.67;9.40;;;20.90;99.90;;;;;;6201212;28;20233;-64
2021/09/16 05:33:43;;;;;;;9.00;8.23;;;20.90;99.90;;;;;;6197161;28;20230;-63
2021/09/16 05:36:46;;;;;;;9.10;8.30;;;20.90;99.90;;;;;;6200986;28;20578;-63
2021/09/16 05:39:50;;;;;;;9.37;8.43;;;21.00;99.90;;;;;;6200855;28;20225;-63
2021/09/16 05:42:55;;;;;;;8.47;7.67;;;21.00;99.90;;;;;;6200918;28;20230;-63
2021/09/16 05:45:58;;;;;;;9.90;8.90;;;21.00;99.90;;;;;;6201652;28;20233;-64
2021/09/16 05:49:01;;;;;;;8.17;7.47;;;21.10;99.90;;;;;;6200836;28;20233;-64
2021/09/16 05:52:05;;;;;;;9.60;8.63;;;21.10;99.90;;;;;;6201253;28;20229;-64
2021/09/16 05:55:09;;;;;;;8.57;7.83;;;21.20;99.90;;;;;;6201278;28;20232;-64
2021/09/16 05:58:14;;;;;;;10.17;8.50;;;21.30;99.90;;;;;;6201499;28;20365;-64
2021/09/16 06:01:17;;;;;;;8.80;7.90;;;21.30;99.90;;;;;;6200900;28;20234;-64
2021/09/16 06:04:21;;;;;;;8.40;7.60;;;21.50;99.90;;;;;;6201334;28;20234;-64
2021/09/16 06:07:24;;;;;;;8.30;7.20;;;21.70;99.90;;;;;;6201100;28;20562;-64
2021/09/16 06:10:27;;;;;;;8.57;7.87;;;21.90;99.90;;;;;;6200718;28;20606;-64
2021/09/16 06:13:32;;;;;;;9.00;7.70;;;22.20;99.90;;;;;;6200825;28;20238;-63
2021/09/16 06:16:35;;;;;;;7.63;6.93;;;22.30;99.90;;;;;;6200866;28;20259;-63
2021/09/16 06:19:38;;;;;;;8.80;7.90;;;22.40;99.90;;;;;;6201082;28;20237;-63
2021/09/16 06:22:45;;;;;;;8.43;7.63;;;22.30;99.90;;;;;;6200392;28;20248;-63
2021/09/16 06:25:48;;;;;;;8.70;7.90;;;22.40;99.90;;;;;;6200862;28;20705;-63
2021/09/16 06:28:53;;;;;;;7.80;7.13;;;22.30;99.90;;;;;;6200791;28;20229;-63
2021/09/16 06:31:56;;;;;;;7.87;7.10;;;22.50;99.90;;;;;;6183295;28;20235;-66
2021/09/16 06:35:00;;;;;;;8.30;7.53;;;22.60;99.90;;;;;;6169634;28;20222;-66
2021/09/16 06:38:03;;;;;;;8.13;7.33;;;22.50;99.90;;;;;;6174946;28;20682;-64
2021/09/16 06:41:06;;;;;;;7.83;7.17;;;22.60;99.90;;;;;;6197869;28;20229;-64
2021/09/16 06:44:11;;;;;;;8.03;7.00;;;22.70;99.90;;;;;;6199050;28;20232;-64
2021/09/16 06:47:14;;;;;;;8.63;7.70;;;22.80;99.90;;;;;;6203267;28;20245;-64
2021/09/16 06:50:17;;;;;;;10.63;7.80;;;22.90;99.90;;;;;;6189842;28;20245;-64
2021/09/16 06:53:21;;;;;;;9.17;8.10;;;23.20;99.90;;;;;;6191669;28;20237;-65
2021/09/16 06:56:24;;;;;;;9.47;8.57;;;23.50;99.90;;;;;;6198119;28;20236;-65
2021/09/16 06:59:28;;;;;;;8.07;7.27;;;23.90;99.90;;;;;;6197161;28;20590;-65
2021/09/16 07:02:32;;;;;;;9.13;7.47;;;24.60;99.90;;;;;;6201614;28;20249;-64
2021/09/16 07:05:35;;;;;;;7.27;6.10;;;25.40;99.70;;;;;;6196294;28;20232;-64
2021/09/16 07:08:38;;;;;;;6.20;5.70;;;26.90;96.90;;;;;;6197595;28;20233;-65
2021/09/16 07:11:41;;;;;;;6.90;6.30;;;27.70;94.70;;;;;;6190975;28;20256;-62
2021/09/16 07:14:46;;;;;;;7.80;6.50;;;27.60;93.90;;;;;;6191627;28;20221;-63
2021/09/16 07:17:49;;;;;;;6.20;5.60;;;27.70;93.40;;;;;;6198606;28;20689;-64
2021/09/16 07:20:52;;;;;;;8.40;6.20;;;28.40;92.30;;;;;;6201923;28;20630;-63
2021/09/16 07:23:55;;;;;;;6.43;5.93;;;28.90;91.00;;;;;;6203482;28;20229;-63
2021/09/16 07:26:59;;;;;;;9.17;5.67;;;28.90;89.50;;;;;;6203075;28;20221;-63
2021/09/16 07:30:04;;;;;;;7.00;5.53;;;28.60;90.00;;;;;;6203758;28;20595;-63
2021/09/16 07:33:07;;;;;;;10.07;5.53;;;28.00;90.40;;;;;;6199983;28;20343;-63
2021/09/16 07:36:10;;;;;;;8.20;5.90;;;27.60;91.40;;;;;;6177804;28;20232;-63
2021/09/16 07:39:14;;;;;;;5.57;5.07;;;27.40;92.00;;;;;;6177459;28;20246;-63
2021/09/16 07:42:17;;;;;;;6.53;5.40;;;27.70;92.00;;;;;;6167228;28;20268;-63
2021/09/16 07:45:22;;;;;;;6.77;5.20;;;27.80;91.20;;;;;;6176483;28;20317;-62
2021/09/16 07:48:25;;;;;;;4.90;4.50;;;27.60;90.50;;;;;;6176652;28;20642;-62
2021/09/16 07:51:28;;;;;;;5.50;4.30;;;27.40;90.40;;;;;;6177428;28;20555;-63
2021/09/16 07:54:31;;;;;;;7.47;5.00;;;27.20;90.80;;;;;;6178185;28;20248;-62
2021/09/16 07:57:34;;;;;;;5.03;4.20;;;27.00;90.90;;;;;;6178382;28;20221;-62
2021/09/16 08:00:39;;;;;;;6.77;4.27;;;26.80;91.10;;;;;;6177912;28;20312;-63
2021/09/16 08:03:43;;;;;;;4.87;4.37;;;26.60;91.60;;;;;;6177687;28;20225;-62
2021/09/16 08:06:46;;;;;;;5.33;4.63;;;26.50;91.60;;;;;;6177412;28;20225;-63
2021/09/16 08:09:49;;;;;;;5.57;5.07;;;26.50;91.80;;;;;;6177174;28;20570;-63
2021/09/16 08:12:54;;;;;;;4.77;4.30;;;26.60;91.90;;;;;;6178045;28;20233;-62
2021/09/16 08:15:59;;;;;;;7.63;4.43;;;26.70;91.80;;;;;;6177974;28;20539;-62
2021/09/16 08:19:02;;;;;;;5.97;5.13;;;27.00;90.80;;;;;;6192316;28;20569;-63
2021/09/16 08:22:05;;;;;;;5.30;4.30;;;28.10;90.10;;;;;;6196106;28;20236;-63
2021/09/16 08:25:11;;;;;;;4.60;4.20;;;28.90;87.60;;;;;;6201133;28;20707;-63
2021/09/16 08:28:15;;;;;;;5.07;4.60;;;30.80;82.60;;;;;;6201349;28;20229;-62
2021/09/16 08:31:20;;;;;;;5.50;4.20;;;33.40;71.80;;;;;;6192301;28;20242;-61
2021/09/16 08:34:25;;;;;;;5.32;4.40;;;36.10;61.40;;;;;;6176939;28;20316;-62
2021/09/16 08:37:28;;;;;;;5.10;4.50;;;36.70;53.60;;;;;;6176506;28;20241;-63
2021/09/16 08:40:32;;;;;;;4.37;3.97;;;35.70;53.90;;;;;;6138047;28;1127394;-62
2021/09/16 08:43:38;;;;;;;7.65;4.85;;;34.60;55.00;;;;;;6173600;28;20996;-63
2021/09/16 08:46:43;;;;;;;7.40;4.95;;;33.80;56.90;;;;;;6177811;28;20558;-61
2021/09/16 08:49:46;;;;;;;4.47;4.00;;;32.90;58.90;;;;;;6177749;28;20225;-61
2021/09/16 08:52:50;;;;;;;5.28;4.38;;;32.20;60.20;;;;;;6177521;28;20241;-62
2021/09/16 08:55:55;;;;;;;5.03;4.57;;;31.50;61.60;;;;;;6177835;28;20681;-62
2021/09/16 08:59:02;;;;;;;5.60;4.05;;;31.20;63.20;;;;;;6177294;28;20244;-64
2021/09/16 09:02:08;;;;;;;6.35;4.07;;;31.90;63.70;;;;;;6177598;28;20237;-62
2021/09/16 09:05:12;;;;;;;4.40;4.00;;;34.10;58.50;;;;;;6177415;28;20324;-63
2021/09/16 09:08:22;;;;;;;3.33;3.03;;;36.70;52.40;;;;;;6177837;28;20229;-63
2021/09/16 09:11:25;;;;;;;3.90;3.50;;;40.10;45.70;;;;;;6177521;28;20237;-62
2021/09/16 09:14:30;;;;;;;3.70;3.40;;;43.20;39.50;;;;;;6177789;28;20246;-64
2021/09/16 09:17:35;;;;;;;4.30;3.78;;;44.20;35.20;;;;;;6177150;28;20234;-64
2021/09/16 09:21:03;;;;;;;6.53;4.80;;;44.90;33.70;;;;;;6176886;28;20365;-64
2021/09/16 09:24:06;;;;;;;4.75;4.13;;;44.90;32.80;;;;;;6176899;28;20591;-65
2021/09/16 09:27:24;;;;;;;3.38;3.08;;;45.50;31.60;;;;;;6177244;28;20618;-64
2021/09/16 09:30:31;;;;;;;6.72;3.78;;;45.00;31.70;;;;;;6176504;28;20585;-62
2021/09/16 09:33:35;;;;;;;5.47;4.65;;;45.20;31.20;;;;;;6174117;28;21198;-62
2021/09/16 09:36:39;;;;;;;5.68;3.88;;;45.80;31.20;;;;;;6168964;28;20220;-62
2021/09/16 09:39:47;;;;;;;3.80;3.40;;;47.10;29.40;;;;;;6177116;28;20225;-63
2021/09/16 09:42:50;;;;;;;3.50;2.92;;;48.30;28.60;;;;;;6176636;28;20245;-63
2021/09/16 09:46:05;;;;;;;3.50;2.97;;;50.00;26.40;;;;;;6172890;28;20235;-63
2021/09/16 09:49:16;;;;;;;3.33;3.00;;;48.40;26.10;;;;;;6176515;28;20649;-63
2021/09/16 09:52:26;;;;;;;3.97;3.67;;;46.80;27.10;;;;;;6176786;28;20254;-63
2021/09/16 09:55:29;;;;;;;3.83;3.53;;;45.80;28.50;;;;;;6176789;28;20241;-63
2021/09/16 09:58:34;;;;;;;3.20;3.00;;;45.10;29.20;;;;;;6176883;28;20230;-62
2021/09/16 10:01:38;;;;;;;3.85;3.25;;;45.30;28.60;;;;;;6176814;28;20236;-62
2021/09/16 10:04:43;;;;;;;4.63;3.70;;;43.50;29.40;;;;;;6176624;28;20285;-62
2021/09/16 10:07:46;;;;;;;3.58;3.28;;;41.60;32.20;;;;;;6176729;28;20242;-62
2021/09/16 10:10:52;;;;;;;4.70;3.53;;;40.50;34.20;;;;;;6178293;28;20244;-62
2021/09/16 10:13:56;;;;;;;5.05;3.85;;;39.50;35.60;;;;;;6181333;28;20229;-63
2021/09/16 10:16:59;;;;;;;3.97;3.45;;;38.40;37.40;;;;;;6181157;28;20233;-62
2021/09/16 10:20:05;;;;;;;4.70;4.32;;;37.00;39.20;;;;;;6181245;28;20240;-61
2021/09/16 10:23:10;;;;;;;4.10;3.75;;;36.40;40.20;;;;;;6181621;28;20237;-62
2021/09/16 10:26:31;;;;;;;4.47;3.90;;;35.90;40.90;;;;;;6181320;28;20240;-62
2021/09/16 10:29:37;;;;;;;5.20;3.90;;;35.60;41.30;;;;;;6180861;28;20230;-62
2021/09/16 10:32:41;;;;;;;4.35;3.92;;;34.90;41.90;;;;;;6180926;28;20244;-61
2021/09/16 10:35:47;;;;;;;4.32;3.47;;;34.70;42.10;;;;;;6169402;28;20233;-64
2021/09/16 10:38:53;;;;;;;4.55;4.15;;;34.10;43.50;;;;;;6180475;28;20682;-64
2021/09/16 10:41:56;;;;;;;5.80;5.28;;;33.80;45.10;;;;;;6179597;28;20238;-63
2021/09/16 10:45:06;;;;;;;5.40;4.95;;;33.30;46.30;;;;;;6180052;28;20233;-63
2021/09/16 10:48:29;;;;;;;7.70;5.47;;;32.80;47.60;;;;;;6179776;28;20229;-63
2021/09/16 10:51:40;;;;;;;5.97;5.03;;;32.30;49.60;;;;;;6175195;28;20689;-64
2021/09/16 10:54:48;;;;;;;7.22;5.68;;;32.20;48.20;;;;;;6179908;28;20599;-63
2021/09/16 10:57:51;;;;;;;6.70;6.00;;;32.10;48.40;;;;;;6180419;28;20237;-63
2021/09/16 11:00:54;;;;;;;6.93;6.10;;;31.90;48.40;;;;;;6180357;28;20237;-63
2021/09/16 11:03:59;;;;;;;9.15;5.32;;;31.60;48.50;;;;;;6180354;28;20257;-62
2021/09/16 11:07:04;;;;;;;5.97;5.47;;;31.10;48.70;;;;;;6180379;28;20233;-64
2021/09/16 11:10:40;;;;;;;6.32;5.53;;;31.00;49.30;;;;;;6179715;28;20233;-64
2021/09/16 11:13:54;;;;;;;6.72;6.07;;;31.00;49.80;;;;;;6179903;28;20230;-64
2021/09/16 11:16:59;;;;;;;12.93;6.63;;;31.20;49.30;;;;;;6180005;28;20344;-66
2021/09/16 11:20:02;;;;;;;8.30;7.50;;;31.40;49.20;;;;;;6166222;28;20234;-64
2021/09/16 11:23:08;;;;;;;6.72;6.22;;;31.60;48.00;;;;;;6176970;28;20617;-66
2021/09/16 11:26:17;;;;;;;8.60;7.72;;;31.80;47.60;;;;;;6180243;28;20233;-65
2021/09/16 11:29:20;;;;;;;9.50;8.05;;;31.80;47.20;;;;;;6179435;28;20679;-64
2021/09/16 11:32:30;;;;;;;11.45;7.88;;;31.60;47.70;;;;;;6179835;28;20244;-65
2021/09/16 11:35:34;;;;;;;9.35;8.50;;;31.50;48.50;;;;;;6179147;28;20693;-65
2021/09/16 11:38:38;;;;;;;10.57;8.25;;;31.50;48.80;;;;;;6179570;28;20229;-65
2021/09/16 11:41:42;;;;;;;10.15;9.15;;;31.80;48.50;;;;;;6178981;28;20540;-65
2021/09/16 11:45:10;;;;;;;9.90;9.10;;;31.70;48.60;;;;;;6179625;28;20361;-64
2021/09/16 11:48:16;;;;;;;10.88;9.77;;;31.70;49.10;;;;;;6179098;28;20244;-65
2021/09/16 11:51:19;;;;;;;10.85;9.75;;;31.80;49.50;;;;;;6179472;28;20253;-64
2021/09/16 11:54:23;;;;;;;10.38;9.38;;;31.80;49.70;;;;;;6178602;28;20222;-64
2021/09/16 11:57:27;;;;;;;11.07;9.35;;;31.90;50.10;;;;;;6178710;28;20539;-65
2021/09/16 12:00:32;;;;;;;9.98;9.18;;;31.80;50.20;;;;;;6178819;28;20233;-64
2021/09/16 12:03:38;;;;;;;11.15;10.10;;;31.80;50.70;;;;;;6178820;28;20240;-64
2021/09/16 12:06:41;;;;;;;12.00;11.10;;;31.00;51.70;;;;;;6178630;28;20642;-64
2021/09/16 12:09:46;;;;;;;11.40;10.20;;;30.60;52.50;;;;;;6178405;28;20537;-64
2021/09/16 12:12:49;;;;;;;11.50;10.40;;;30.30;53.30;;;;;;6178966;28;20226;-64
2021/09/16 12:16:02;;;;;;;11.50;10.50;;;30.20;54.00;;;;;;6178223;28;20544;-63
2021/09/16 12:19:08;;;;;;;12.30;11.20;;;30.20;54.50;;;;;;6178227;28;20659;-64
2021/09/16 12:22:12;;;;;;;10.80;9.97;;;30.00;54.70;;;;;;6166111;28;20234;-63
2021/09/16 12:25:16;;;;;;;12.07;11.07;;;29.70;55.90;;;;;;6154588;28;20234;-63
2021/09/16 12:28:19;;;;;;;13.63;12.30;;;29.70;56.20;;;;;;6154508;28;20690;-65
2021/09/16 12:31:28;;;;;;;12.60;11.43;;;29.80;55.80;;;;;;6154138;28;20230;-66
2021/09/16 12:34:33;;;;;;;15.33;11.00;;;29.80;56.40;;;;;;6153898;28;20234;-64
2021/09/16 12:37:37;;;;;;;11.50;10.47;;;29.90;56.50;;;;;;6177971;28;20244;-64
2021/09/16 12:40:41;;;;;;;12.10;11.20;;;29.90;56.70;;;;;;6177447;28;20597;-64
2021/09/16 12:43:45;;;;;;;12.40;11.30;;;30.00;56.90;;;;;;6154263;28;20235;-64
2021/09/16 12:46:58;;;;;;;12.10;11.13;;;29.80;57.20;;;;;;6153862;28;20235;-65
2021/09/16 12:50:07;;;;;;;12.30;11.40;;;29.20;59.10;;;;;;6153893;28;20234;-62
2021/09/16 12:53:15;;;;;;;12.50;11.47;;;28.70;60.40;;;;;;6154000;28;20230;-64
2021/09/16 12:56:20;;;;;;;13.63;12.60;;;28.70;60.40;;;;;;6154051;28;20242;-64
2021/09/16 12:59:26;;;;;;;19.30;13.30;;;28.80;60.40;;;;;;6153477;28;20666;-63
2021/09/16 13:02:41;;;;;;;12.80;11.60;;;28.80;61.30;;;;;;6149132;28;20226;-63
2021/09/16 13:05:44;;;;;;;12.53;11.40;;;28.70;62.00;;;;;;6153589;28;20234;-66
2021/09/16 13:08:47;;;;;;;13.13;12.03;;;28.60;62.30;;;;;;6153458;28;20571;-63
2021/09/16 13:11:52;;;;;;;12.40;11.50;;;28.30;63.70;;;;;;6153141;28;20226;-65
2021/09/16 13:14:55;;;;;;;13.23;12.20;;;28.20;64.50;;;;;;6153238;28;20761;-62
2021/09/16 13:17:58;;;;;;;13.00;11.90;;;28.20;65.70;;;;;;6152771;28;20588;-64
2021/09/16 13:21:02;;;;;;;12.27;11.07;;;28.20;65.90;;;;;;6156575;28;20229;-62
2021/09/16 13:24:05;;;;;;;11.77;10.87;;;28.20;65.50;;;;;;6176885;28;20229;-62
2021/09/16 13:27:10;;;;;;;12.97;11.00;;;27.90;66.40;;;;;;6176861;28;20233;-62
2021/09/16 13:30:14;;;;;;;11.80;10.80;;;27.80;66.00;;;;;;6177055;28;20233;-65
2021/09/16 13:33:17;;;;;;;12.50;11.50;;;27.70;67.20;;;;;;6177065;28;20229;-65
2021/09/16 13:36:21;;;;;;;12.30;11.40;;;27.80;68.00;;;;;;6177928;28;20226;-64
2021/09/16 13:39:24;;;;;;;11.80;10.90;;;27.80;67.40;;;;;;6178537;28;20233;-64
2021/09/16 13:42:29;;;;;;;13.00;11.97;;;28.00;67.40;;;;;;6178026;28;20243;-64
2021/09/16 13:45:32;;;;;;;12.77;11.30;;;28.10;67.50;;;;;;6176299;28;20532;-64
2021/09/16 13:48:36;;;;;;;11.10;10.00;;;28.20;67.40;;;;;;6176901;28;20250;-64
2021/09/16 13:51:39;;;;;;;11.73;10.73;;;28.30;67.60;;;;;;6176744;28;20233;-64
2021/09/16 13:54:42;;;;;;;11.80;10.90;;;28.30;67.70;;;;;;6176722;28;20213;-65
2021/09/16 13:57:46;;;;;;;11.93;10.67;;;28.30;68.00;;;;;;6176307;28;20226;-65
2021/09/16 14:00:51;;;;;;;13.10;11.87;;;28.20;68.00;;;;;;6176630;28;20674;-65
2021/09/16 14:03:54;;;;;;;11.90;10.80;;;28.20;68.20;;;;;;6167097;28;20311;-65
2021/09/16 14:06:58;;;;;;;11.63;10.70;;;28.10;67.70;;;;;;6176630;28;20312;-65
2021/09/16 14:10:02;;;;;;;12.80;11.73;;;28.00;68.50;;;;;;6176529;28;20230;-65
2021/09/16 14:13:06;;;;;;;11.90;10.80;;;27.90;68.70;;;;;;6176976;28;20229;-65
2021/09/16 14:16:10;;;;;;;12.37;11.00;;;27.90;67.30;;;;;;6178243;28;20327;-65
2021/09/16 14:19:13;;;;;;;13.53;12.13;;;27.80;67.00;;;;;;6189013;28;20240;-65
2021/09/16 14:22:16;;;;;;;12.23;10.97;;;27.80;67.80;;;;;;6189170;28;20543;-65
2021/09/16 14:25:19;;;;;;;11.93;10.73;;;27.80;67.60;;;;;;6186534;28;20221;-65
2021/09/16 14:28:24;;;;;;;12.67;11.57;;;27.90;67.60;;;;;;6199850;28;20296;-65
2021/09/16 14:31:27;;;;;;;12.63;11.43;;;27.90;67.70;;;;;;6199875;28;20243;-65
2021/09/16 14:34:31;;;;;;;15.57;11.93;;;27.90;67.60;;;;;;6188189;28;20229;-67
2021/09/16 14:37:34;;;;;;;16.27;11.60;;;27.70;67.60;;;;;;6177653;28;20248;-65
2021/09/16 14:40:37;;;;;;;11.37;10.47;;;27.50;68.30;;;;;;6175917;28;20535;-66
2021/09/16 14:44:01;;;;;;;15.13;13.83;;;27.40;69.70;;;;;;6152145;28;20313;-65
2021/09/16 14:47:05;;;;;;;15.63;13.00;;;27.10;73.50;;;;;;6174688;28;20245;-64
2021/09/16 14:50:09;;;;;;;16.03;12.80;;;26.80;76.10;;;;;;6176177;28;20230;-64
2021/09/16 14:53:12;;;;;;;16.10;14.60;;;26.50;78.00;;;;;;6176134;28;20240;-65
2021/09/16 14:56:15;;;;;;;17.37;15.20;;;26.20;80.10;;;;;;6176585;28;20245;-65
2021/09/16 14:59:20;;;;;;;17.27;13.90;;;25.90;81.90;;;;;;6180337;28;20241;-63
2021/09/16 15:02:23;;;;;;;20.30;15.10;;;25.70;84.20;;;;;;6180250;28;20245;-66
2021/09/16 15:05:28;;;;;;;18.67;14.30;;;25.70;85.50;;;;;;6180515;28;20585;-66
2021/09/16 15:08:32;;;;;;;17.57;15.63;;;25.60;87.40;;;;;;6180608;28;20256;-65
2021/09/16 15:11:35;;;;;;;22.50;17.33;;;25.50;88.90;;;;;;6180569;28;20245;-65
2021/09/16 15:14:39;;;;;;;23.13;15.20;;;25.40;90.30;;;;;;6179993;28;20240;-64
2021/09/16 15:17:43;;;;;;;20.57;15.30;;;25.30;91.20;;;;;;6180094;28;20249;-65
2021/09/16 15:20:46;;;;;;;16.43;14.57;;;25.20;91.90;;;;;;6180045;28;20234;-65
2021/09/16 15:23:49;;;;;;;22.37;16.10;;;25.30;92.10;;;;;;6180007;28;20237;-65
2021/09/16 15:26:53;;;;;;;25.93;16.10;;;25.40;92.30;;;;;;6179777;28;20721;-65
2021/09/16 15:29:57;;;;;;;23.30;16.07;;;25.40;92.40;;;;;;6179969;28;20226;-65
2021/09/16 15:33:00;;;;;;;20.83;16.43;;;25.40;92.70;;;;;;6179736;28;20237;-65
2021/09/16 15:36:04;;;;;;;18.00;16.40;;;25.30;92.70;;;;;;6179672;28;20289;-63
2021/09/16 15:39:07;;;;;;;16.03;14.20;;;25.40;92.90;;;;;;6179640;28;20240;-64
2021/09/16 15:42:10;;;;;;;18.27;16.37;;;25.30;93.10;;;;;;6179005;28;20355;-65
2021/09/16 15:45:15;;;;;;;20.00;16.17;;;25.30;93.40;;;;;;6179354;28;20245;-65